sensor_id;sensor_type;location;lat;lon;timestamp;temperature;humidity
26821;DHT22;37186;51.394;5.454;2023-12-14T00:01:38;11.10;90.50
26821;DHT22;37186;51.394;5.454;2023-12-14T00:04:41;11.10;90.60
26821;DHT22;37186;51.394;5.454;2023-12-14T00:07:41;11.10;90.60
26821;DHT22;37186;51.394;5.454;2023-12-14T00:10:42;11.10;90.60
26821;DHT22;37186;51.394;5.454;2023-12-14T00:13:42;11.10;90.60
26821;DHT22;37186;51.394;5.454;2023-12-14T00:16:43;11.10;90.60
26821;DHT22;37186;51.394;5.454;2023-12-14T00:19:43;11.10;90.50
26821;DHT22;37186;51.394;5.454;2023-12-14T00:22:44;11.10;90.50
26821;DHT22;37186;51.394;5.454;2023-12-14T00:25:44;11.00;90.50
26821;DHT22;37186;51.394;5.454;2023-12-14T00:28:45;11.00;90.50
26821;DHT22;37186;51.394;5.454;2023-12-14T00:31:45;11.00;90.50
26821;DHT22;37186;51.394;5.454;2023-12-14T00:34:46;11.00;90.50
26821;DHT22;37186;51.394;5.454;2023-12-14T00:37:46;11.00;90.50
26821;DHT22;37186;51.394;5.454;2023-12-14T00:40:47;11.00;90.50
26821;DHT22;37186;51.394;5.454;2023-12-14T00:43:47;11.00;90.50
26821;DHT22;37186;51.394;5.454;2023-12-14T00:46:48;11.00;90.50
26821;DHT22;37186;51.394;5.454;2023-12-14T00:49:49;11.00;90.50
26821;DHT22;37186;51.394;5.454;2023-12-14T00:52:49;10.90;90.50
26821;DHT22;37186;51.394;5.454;2023-12-14T00:55:49;10.90;90.50
26821;DHT22;37186;51.394;5.454;2023-12-14T00:58:50;10.90;90.40
26821;DHT22;37186;51.394;5.454;2023-12-14T01:01:51;10.90;90.40
26821;DHT22;37186;51.394;5.454;2023-12-14T01:04:51;10.90;90.50
26821;DHT22;37186;51.394;5.454;2023-12-14T01:07:52;10.80;90.40
26821;DHT22;37186;51.394;5.454;2023-12-14T01:10:52;10.80;90.50
26821;DHT22;37186;51.394;5.454;2023-12-14T01:13:53;10.80;90.40
26821;DHT22;37186;51.394;5.454;2023-12-14T01:16:53;10.70;90.40
26821;DHT22;37186;51.394;5.454;2023-12-14T01:19:54;10.70;90.40
26821;DHT22;37186;51.394;5.454;2023-12-14T01:22:54;10.70;90.40
26821;DHT22;37186;51.394;5.454;2023-12-14T01:25:55;10.70;90.40
26821;DHT22;37186;51.394;5.454;2023-12-14T01:28:55;10.70;90.40
26821;DHT22;37186;51.394;5.454;2023-12-14T01:31:56;10.60;90.40
26821;DHT22;37186;51.394;5.454;2023-12-14T01:34:56;10.60;90.30
26821;DHT22;37186;51.394;5.454;2023-12-14T01:37:57;10.60;90.30
26821;DHT22;37186;51.394;5.454;2023-12-14T01:40:57;10.60;90.20
26821;DHT22;37186;51.394;5.454;2023-12-14T01:43:59;10.50;90.30
26821;DHT22;37186;51.394;5.454;2023-12-14T01:47:00;10.50;90.30
26821;DHT22;37186;51.394;5.454;2023-12-14T01:50:00;10.50;90.30
26821;DHT22;37186;51.394;5.454;2023-12-14T01:53:01;10.50;90.40
26821;DHT22;37186;51.394;5.454;2023-12-14T01:56:01;10.40;90.30
26821;DHT22;37186;51.394;5.454;2023-12-14T01:59:02;10.40;90.30
26821;DHT22;37186;51.394;5.454;2023-12-14T02:02:03;10.40;90.30
26821;DHT22;37186;51.394;5.454;2023-12-14T02:05:05;10.30;90.30
26821;DHT22;37186;51.394;5.454;2023-12-14T02:08:06;10.30;90.30
26821;DHT22;37186;51.394;5.454;2023-12-14T02:11:07;10.30;90.30
26821;DHT22;37186;51.394;5.454;2023-12-14T02:14:12;10.30;90.30
26821;DHT22;37186;51.394;5.454;2023-12-14T02:17:12;10.20;90.30
26821;DHT22;37186;51.394;5.454;2023-12-14T02:20:13;10.20;90.30
26821;DHT22;37186;51.394;5.454;2023-12-14T02:23:13;10.20;90.30
26821;DHT22;37186;51.394;5.454;2023-12-14T02:26:14;10.10;90.30
26821;DHT22;37186;51.394;5.454;2023-12-14T02:29:14;10.10;90.30
26821;DHT22;37186;51.394;5.454;2023-12-14T02:32:15;10.10;90.40
26821;DHT22;37186;51.394;5.454;2023-12-14T02:35:15;10.10;90.30
26821;DHT22;37186;51.394;5.454;2023-12-14T02:38:18;10.00;90.40
26821;DHT22;37186;51.394;5.454;2023-12-14T02:41:19;10.00;90.30
26821;DHT22;37186;51.394;5.454;2023-12-14T02:44:19;10.00;90.30
26821;DHT22;37186;51.394;5.454;2023-12-14T02:47:20;10.00;90.30
26821;DHT22;37186;51.394;5.454;2023-12-14T02:50:20;10.00;90.30
26821;DHT22;37186;51.394;5.454;2023-12-14T02:53:21;10.00;90.30
26821;DHT22;37186;51.394;5.454;2023-12-14T02:56:21;10.00;90.30
26821;DHT22;37186;51.394;5.454;2023-12-14T02:59:22;9.90;90.20
26821;DHT22;37186;51.394;5.454;2023-12-14T03:02:22;9.90;90.20
26821;DHT22;37186;51.394;5.454;2023-12-14T03:05:23;9.90;90.20
26821;DHT22;37186;51.394;5.454;2023-12-14T03:08:23;9.90;90.20
26821;DHT22;37186;51.394;5.454;2023-12-14T03:11:24;9.80;90.20
26821;DHT22;37186;51.394;5.454;2023-12-14T03:14:25;9.80;90.30
26821;DHT22;37186;51.394;5.454;2023-12-14T03:17:25;9.80;90.30
26821;DHT22;37186;51.394;5.454;2023-12-14T03:20:26;9.80;90.30
26821;DHT22;37186;51.394;5.454;2023-12-14T03:23:26;9.80;90.30
26821;DHT22;37186;51.394;5.454;2023-12-14T03:26:27;9.70;90.30
26821;DHT22;37186;51.394;5.454;2023-12-14T03:29:28;9.80;90.30
26821;DHT22;37186;51.394;5.454;2023-12-14T03:32:28;9.70;90.30
26821;DHT22;37186;51.394;5.454;2023-12-14T03:35:29;9.70;90.20
26821;DHT22;37186;51.394;5.454;2023-12-14T03:38:30;9.70;90.20
26821;DHT22;37186;51.394;5.454;2023-12-14T03:41:30;9.70;90.20
26821;DHT22;37186;51.394;5.454;2023-12-14T03:44:30;9.70;90.20
26821;DHT22;37186;51.394;5.454;2023-12-14T03:47:31;9.70;90.20
26821;DHT22;37186;51.394;5.454;2023-12-14T03:50:32;9.60;90.20
26821;DHT22;37186;51.394;5.454;2023-12-14T03:53:33;9.60;90.20
26821;DHT22;37186;51.394;5.454;2023-12-14T03:56:33;9.60;90.20
26821;DHT22;37186;51.394;5.454;2023-12-14T03:59:34;9.60;90.30
26821;DHT22;37186;51.394;5.454;2023-12-14T04:02:39;9.60;90.20
26821;DHT22;37186;51.394;5.454;2023-12-14T04:05:39;9.60;90.20
26821;DHT22;37186;51.394;5.454;2023-12-14T04:08:41;9.60;90.10
26821;DHT22;37186;51.394;5.454;2023-12-14T04:11:41;9.60;90.10
26821;DHT22;37186;51.394;5.454;2023-12-14T04:14:42;9.60;90.20
26821;DHT22;37186;51.394;5.454;2023-12-14T04:17:43;9.50;90.10
26821;DHT22;37186;51.394;5.454;2023-12-14T04:20:43;9.50;90.10
26821;DHT22;37186;51.394;5.454;2023-12-14T04:23:44;9.50;90.20
26821;DHT22;37186;51.394;5.454;2023-12-14T04:26:46;9.50;90.20
26821;DHT22;37186;51.394;5.454;2023-12-14T04:29:46;9.40;90.10
26821;DHT22;37186;51.394;5.454;2023-12-14T04:32:47;9.50;90.30
26821;DHT22;37186;51.394;5.454;2023-12-14T04:35:48;9.50;90.20
26821;DHT22;37186;51.394;5.454;2023-12-14T04:38:48;9.50;90.20
26821;DHT22;37186;51.394;5.454;2023-12-14T04:41:48;9.40;90.20
26821;DHT22;37186;51.394;5.454;2023-12-14T04:44:49;9.40;90.20
26821;DHT22;37186;51.394;5.454;2023-12-14T04:47:49;9.40;90.20
26821;DHT22;37186;51.394;5.454;2023-12-14T04:50:50;9.40;90.20
26821;DHT22;37186;51.394;5.454;2023-12-14T04:53:50;9.40;90.10
26821;DHT22;37186;51.394;5.454;2023-12-14T04:56:51;9.40;90.20
26821;DHT22;37186;51.394;5.454;2023-12-14T04:59:52;9.40;90.10
26821;DHT22;37186;51.394;5.454;2023-12-14T05:02:52;9.40;90.20
26821;DHT22;37186;51.394;5.454;2023-12-14T05:05:53;9.40;90.20
26821;DHT22;37186;51.394;5.454;2023-12-14T05:08:53;9.40;90.20
26821;DHT22;37186;51.394;5.454;2023-12-14T05:11:54;9.30;90.20
26821;DHT22;37186;51.394;5.454;2023-12-14T05:14:55;9.40;90.20
26821;DHT22;37186;51.394;5.454;2023-12-14T05:17:55;9.40;90.20
26821;DHT22;37186;51.394;5.454;2023-12-14T05:20:56;9.30;90.20
26821;DHT22;37186;51.394;5.454;2023-12-14T05:23:56;9.30;90.20
26821;DHT22;37186;51.394;5.454;2023-12-14T05:26:57;9.40;90.20
26821;DHT22;37186;51.394;5.454;2023-12-14T05:29:57;9.30;90.20
26821;DHT22;37186;51.394;5.454;2023-12-14T05:32:58;9.40;90.10
26821;DHT22;37186;51.394;5.454;2023-12-14T05:35:58;9.30;90.10
26821;DHT22;37186;51.394;5.454;2023-12-14T05:38:59;9.30;90.10
26821;DHT22;37186;51.394;5.454;2023-12-14T05:41:59;9.30;90.10
26821;DHT22;37186;51.394;5.454;2023-12-14T05:45:01;9.30;90.10
26821;DHT22;37186;51.394;5.454;2023-12-14T05:48:02;9.30;90.10
26821;DHT22;37186;51.394;5.454;2023-12-14T05:51:02;9.30;90.20
26821;DHT22;37186;51.394;5.454;2023-12-14T05:54:03;9.30;90.10
26821;DHT22;37186;51.394;5.454;2023-12-14T05:57:04;9.30;90.50
26821;DHT22;37186;51.394;5.454;2023-12-14T06:00:05;9.30;90.20
26821;DHT22;37186;51.394;5.454;2023-12-14T06:03:07;9.30;90.10
26821;DHT22;37186;51.394;5.454;2023-12-14T06:06:08;9.30;90.10
26821;DHT22;37186;51.394;5.454;2023-12-14T06:09:08;9.30;90.10
26821;DHT22;37186;51.394;5.454;2023-12-14T06:12:09;9.30;90.10
26821;DHT22;37186;51.394;5.454;2023-12-14T06:15:10;9.20;90.10
26821;DHT22;37186;51.394;5.454;2023-12-14T06:18:13;9.30;90.10
26821;DHT22;37186;51.394;5.454;2023-12-14T06:21:14;9.20;90.10
26821;DHT22;37186;51.394;5.454;2023-12-14T06:24:15;9.30;90.10
26821;DHT22;37186;51.394;5.454;2023-12-14T06:27:15;9.20;90.10
26821;DHT22;37186;51.394;5.454;2023-12-14T06:30:16;9.20;90.20
26821;DHT22;37186;51.394;5.454;2023-12-14T06:33:16;9.20;90.10
26821;DHT22;37186;51.394;5.454;2023-12-14T06:36:17;9.20;90.20
26821;DHT22;37186;51.394;5.454;2023-12-14T06:39:20;9.20;90.10
26821;DHT22;37186;51.394;5.454;2023-12-14T06:42:21;9.20;90.00
26821;DHT22;37186;51.394;5.454;2023-12-14T06:45:21;9.20;90.00
26821;DHT22;37186;51.394;5.454;2023-12-14T06:48:22;9.20;90.10
26821;DHT22;37186;51.394;5.454;2023-12-14T06:51:22;9.20;90.10
26821;DHT22;37186;51.394;5.454;2023-12-14T06:54:23;9.20;90.10
26821;DHT22;37186;51.394;5.454;2023-12-14T06:57:24;9.20;90.10
26821;DHT22;37186;51.394;5.454;2023-12-14T07:00:25;9.20;90.10
26821;DHT22;37186;51.394;5.454;2023-12-14T07:03:25;9.20;90.10
26821;DHT22;37186;51.394;5.454;2023-12-14T07:06:26;9.20;90.10
26821;DHT22;37186;51.394;5.454;2023-12-14T07:09:26;9.20;90.10
26821;DHT22;37186;51.394;5.454;2023-12-14T07:12:27;9.20;90.20
26821;DHT22;37186;51.394;5.454;2023-12-14T07:15:27;9.10;90.10
26821;DHT22;37186;51.394;5.454;2023-12-14T07:18:28;9.20;90.10
26821;DHT22;37186;51.394;5.454;2023-12-14T07:21:28;9.20;90.10
26821;DHT22;37186;51.394;5.454;2023-12-14T07:24:29;9.10;90.10
26821;DHT22;37186;51.394;5.454;2023-12-14T07:27:29;9.20;90.10
26821;DHT22;37186;51.394;5.454;2023-12-14T07:30:30;9.10;90.00
26821;DHT22;37186;51.394;5.454;2023-12-14T07:33:30;9.10;90.00
26821;DHT22;37186;51.394;5.454;2023-12-14T07:36:31;9.20;90.00
26821;DHT22;37186;51.394;5.454;2023-12-14T07:39:32;9.10;89.80
26821;DHT22;37186;51.394;5.454;2023-12-14T07:42:32;9.10;89.70
26821;DHT22;37186;51.394;5.454;2023-12-14T07:45:33;9.10;90.00
26821;DHT22;37186;51.394;5.454;2023-12-14T07:48:33;9.10;89.80
26821;DHT22;37186;51.394;5.454;2023-12-14T07:51:34;9.10;89.80
26821;DHT22;37186;51.394;5.454;2023-12-14T07:54:35;9.00;89.90
26821;DHT22;37186;51.394;5.454;2023-12-14T07:57:35;9.00;89.90
26821;DHT22;37186;51.394;5.454;2023-12-14T08:00:36;9.00;89.70
26821;DHT22;37186;51.394;5.454;2023-12-14T08:03:36;9.00;89.90
26821;DHT22;37186;51.394;5.454;2023-12-14T08:06:37;9.00;89.80
26821;DHT22;37186;51.394;5.454;2023-12-14T08:09:39;9.00;89.90
26821;DHT22;37186;51.394;5.454;2023-12-14T08:12:40;9.00;89.80
26821;DHT22;37186;51.394;5.454;2023-12-14T08:15:40;8.90;89.80
26821;DHT22;37186;51.394;5.454;2023-12-14T08:18:41;8.90;89.70
26821;DHT22;37186;51.394;5.454;2023-12-14T08:21:42;8.90;89.80
26821;DHT22;37186;51.394;5.454;2023-12-14T08:24:43;8.90;89.60
26821;DHT22;37186;51.394;5.454;2023-12-14T08:27:43;8.90;89.90
26821;DHT22;37186;51.394;5.454;2023-12-14T08:30:47;8.90;89.90
26821;DHT22;37186;51.394;5.454;2023-12-14T08:33:47;8.80;89.90
26821;DHT22;37186;51.394;5.454;2023-12-14T08:36:48;8.80;89.90
26821;DHT22;37186;51.394;5.454;2023-12-14T08:39:48;8.80;89.90
26821;DHT22;37186;51.394;5.454;2023-12-14T08:42:49;8.80;90.30
26821;DHT22;37186;51.394;5.454;2023-12-14T08:45:49;8.80;89.90
26821;DHT22;37186;51.394;5.454;2023-12-14T08:48:50;8.80;89.90
26821;DHT22;37186;51.394;5.454;2023-12-14T08:51:50;8.80;89.80
26821;DHT22;37186;51.394;5.454;2023-12-14T08:54:51;8.80;90.20
26821;DHT22;37186;51.394;5.454;2023-12-14T08:57:52;8.80;89.60
26821;DHT22;37186;51.394;5.454;2023-12-14T09:00:53;8.80;89.70
26821;DHT22;37186;51.394;5.454;2023-12-14T09:03:53;8.80;89.70
26821;DHT22;37186;51.394;5.454;2023-12-14T09:06:54;8.80;89.60
26821;DHT22;37186;51.394;5.454;2023-12-14T09:09:54;8.80;89.70
26821;DHT22;37186;51.394;5.454;2023-12-14T09:12:55;8.80;89.70
26821;DHT22;37186;51.394;5.454;2023-12-14T09:15:56;8.80;89.80
26821;DHT22;37186;51.394;5.454;2023-12-14T09:18:56;8.70;89.80
26821;DHT22;37186;51.394;5.454;2023-12-14T09:21:57;8.70;89.90
26821;DHT22;37186;51.394;5.454;2023-12-14T09:24:58;8.70;89.90
26821;DHT22;37186;51.394;5.454;2023-12-14T09:27:58;8.70;89.90
26821;DHT22;37186;51.394;5.454;2023-12-14T09:30:59;8.80;90.00
26821;DHT22;37186;51.394;5.454;2023-12-14T09:33:59;8.80;90.00
26821;DHT22;37186;51.394;5.454;2023-12-14T09:37:00;8.80;90.00
26821;DHT22;37186;51.394;5.454;2023-12-14T09:40:00;8.80;90.00
26821;DHT22;37186;51.394;5.454;2023-12-14T09:43:02;8.80;90.00
26821;DHT22;37186;51.394;5.454;2023-12-14T09:46:04;8.80;90.00
26821;DHT22;37186;51.394;5.454;2023-12-14T09:49:05;8.80;90.00
26821;DHT22;37186;51.394;5.454;2023-12-14T09:52:06;8.80;89.80
26821;DHT22;37186;51.394;5.454;2023-12-14T09:55:06;8.80;89.80
26821;DHT22;37186;51.394;5.454;2023-12-14T09:58:09;8.80;89.80
26821;DHT22;37186;51.394;5.454;2023-12-14T10:01:24;8.80;89.80
26821;DHT22;37186;51.394;5.454;2023-12-14T10:04:25;8.80;89.80
26821;DHT22;37186;51.394;5.454;2023-12-14T10:07:25;8.80;89.70
26821;DHT22;37186;51.394;5.454;2023-12-14T10:10:28;8.80;89.50
26821;DHT22;37186;51.394;5.454;2023-12-14T10:13:37;8.70;89.40
26821;DHT22;37186;51.394;5.454;2023-12-14T10:16:38;8.70;89.50
26821;DHT22;37186;51.394;5.454;2023-12-14T10:19:45;8.70;89.40
26821;DHT22;37186;51.394;5.454;2023-12-14T10:22:46;8.70;89.50
26821;DHT22;37186;51.394;5.454;2023-12-14T10:25:47;8.70;89.50
26821;DHT22;37186;51.394;5.454;2023-12-14T10:28:47;8.80;89.60
26821;DHT22;37186;51.394;5.454;2023-12-14T10:31:49;8.60;89.40
26821;DHT22;37186;51.394;5.454;2023-12-14T10:34:49;8.60;89.30
26821;DHT22;37186;51.394;5.454;2023-12-14T10:37:51;8.60;89.30
26821;DHT22;37186;51.394;5.454;2023-12-14T10:40:53;8.60;89.40
26821;DHT22;37186;51.394;5.454;2023-12-14T10:43:55;8.60;89.50
26821;DHT22;37186;51.394;5.454;2023-12-14T10:46:57;8.60;89.50
26821;DHT22;37186;51.394;5.454;2023-12-14T10:50:00;8.60;89.50
26821;DHT22;37186;51.394;5.454;2023-12-14T10:53:01;8.60;89.50
26821;DHT22;37186;51.394;5.454;2023-12-14T10:56:06;8.60;89.50
26821;DHT22;37186;51.394;5.454;2023-12-14T10:59:10;8.70;89.60
26821;DHT22;37186;51.394;5.454;2023-12-14T11:02:10;8.60;89.60
26821;DHT22;37186;51.394;5.454;2023-12-14T11:05:13;8.70;89.70
26821;DHT22;37186;51.394;5.454;2023-12-14T11:08:16;8.70;89.70
26821;DHT22;37186;51.394;5.454;2023-12-14T11:11:18;8.70;89.80
26821;DHT22;37186;51.394;5.454;2023-12-14T11:14:21;8.70;89.60
26821;DHT22;37186;51.394;5.454;2023-12-14T11:17:23;8.70;89.60
26821;DHT22;37186;51.394;5.454;2023-12-14T11:20:25;8.70;89.50
26821;DHT22;37186;51.394;5.454;2023-12-14T11:26:26;8.70;89.50
26821;DHT22;37186;51.394;5.454;2023-12-14T11:29:29;8.70;89.50
26821;DHT22;37186;51.394;5.454;2023-12-14T11:32:30;8.70;89.40
26821;DHT22;37186;51.394;5.454;2023-12-14T11:35:30;8.70;89.50
26821;DHT22;37186;51.394;5.454;2023-12-14T11:38:31;8.70;89.40
26821;DHT22;37186;51.394;5.454;2023-12-14T11:41:32;8.70;89.30
26821;DHT22;37186;51.394;5.454;2023-12-14T11:44:34;8.70;89.20
26821;DHT22;37186;51.394;5.454;2023-12-14T11:47:35;8.70;89.30
26821;DHT22;37186;51.394;5.454;2023-12-14T11:50:40;8.70;89.10
26821;DHT22;37186;51.394;5.454;2023-12-14T11:53:44;8.70;89.30
26821;DHT22;37186;51.394;5.454;2023-12-14T11:56:48;8.70;89.40
26821;DHT22;37186;51.394;5.454;2023-12-14T11:59:50;8.70;89.10
26821;DHT22;37186;51.394;5.454;2023-12-14T12:03:06;8.80;89.10
26821;DHT22;37186;51.394;5.454;2023-12-14T12:06:07;8.80;89.30
26821;DHT22;37186;51.394;5.454;2023-12-14T12:09:07;8.80;89.20
26821;DHT22;37186;51.394;5.454;2023-12-14T12:12:12;8.80;89.10
26821;DHT22;37186;51.394;5.454;2023-12-14T12:15:13;8.80;89.20
26821;DHT22;37186;51.394;5.454;2023-12-14T12:18:15;8.70;89.20
26821;DHT22;37186;51.394;5.454;2023-12-14T12:21:17;8.70;89.20
26821;DHT22;37186;51.394;5.454;2023-12-14T12:24:17;8.80;89.30
26821;DHT22;37186;51.394;5.454;2023-12-14T12:27:18;8.80;89.20
26821;DHT22;37186;51.394;5.454;2023-12-14T12:30:18;8.80;89.10
26821;DHT22;37186;51.394;5.454;2023-12-14T12:33:19;8.80;89.30
26821;DHT22;37186;51.394;5.454;2023-12-14T12:36:20;8.80;89.00
26821;DHT22;37186;51.394;5.454;2023-12-14T12:39:21;8.80;89.00
26821;DHT22;37186;51.394;5.454;2023-12-14T12:42:22;8.80;89.00
26821;DHT22;37186;51.394;5.454;2023-12-14T12:45:23;8.70;88.90
26821;DHT22;37186;51.394;5.454;2023-12-14T12:48:26;8.70;89.00
26821;DHT22;37186;51.394;5.454;2023-12-14T12:51:27;8.70;88.50
26821;DHT22;37186;51.394;5.454;2023-12-14T12:54:28;8.70;88.30
26821;DHT22;37186;51.394;5.454;2023-12-14T12:57:31;8.70;88.50
26821;DHT22;37186;51.394;5.454;2023-12-14T13:00:31;8.70;88.50
26821;DHT22;37186;51.394;5.454;2023-12-14T13:03:32;8.70;88.50
26821;DHT22;37186;51.394;5.454;2023-12-14T13:06:32;8.70;88.50
26821;DHT22;37186;51.394;5.454;2023-12-14T13:09:33;8.60;88.60
26821;DHT22;37186;51.394;5.454;2023-12-14T13:12:33;8.60;88.80
26821;DHT22;37186;51.394;5.454;2023-12-14T13:15:34;8.60;88.80
26821;DHT22;37186;51.394;5.454;2023-12-14T13:18:35;8.60;88.80
26821;DHT22;37186;51.394;5.454;2023-12-14T13:21:36;8.70;88.60
26821;DHT22;37186;51.394;5.454;2023-12-14T13:24:37;8.70;88.60
26821;DHT22;37186;51.394;5.454;2023-12-14T13:27:37;8.70;88.80
26821;DHT22;37186;51.394;5.454;2023-12-14T13:30:38;8.70;88.80
26821;DHT22;37186;51.394;5.454;2023-12-14T13:33:39;8.70;88.80
26821;DHT22;37186;51.394;5.454;2023-12-14T13:36:40;8.70;89.50
26821;DHT22;37186;51.394;5.454;2023-12-14T13:39:40;8.80;88.70
26821;DHT22;37186;51.394;5.454;2023-12-14T13:42:41;8.70;88.80
26821;DHT22;37186;51.394;5.454;2023-12-14T13:45:41;8.70;88.90
26821;DHT22;37186;51.394;5.454;2023-12-14T13:48:45;8.70;88.90
26821;DHT22;37186;51.394;5.454;2023-12-14T13:51:45;8.80;88.90
26821;DHT22;37186;51.394;5.454;2023-12-14T13:54:46;8.80;88.90
26821;DHT22;37186;51.394;5.454;2023-12-14T13:57:47;8.80;89.00
26821;DHT22;37186;51.394;5.454;2023-12-14T14:00:48;8.80;89.00
26821;DHT22;37186;51.394;5.454;2023-12-14T14:03:48;8.80;88.90
26821;DHT22;37186;51.394;5.454;2023-12-14T14:06:49;8.80;88.90
26821;DHT22;37186;51.394;5.454;2023-12-14T14:09:49;8.80;88.90
26821;DHT22;37186;51.394;5.454;2023-12-14T14:12:50;8.80;88.70
26821;DHT22;37186;51.394;5.454;2023-12-14T14:15:50;8.80;88.90
26821;DHT22;37186;51.394;5.454;2023-12-14T14:18:51;8.80;88.80
26821;DHT22;37186;51.394;5.454;2023-12-14T14:21:52;8.80;88.90
26821;DHT22;37186;51.394;5.454;2023-12-14T14:24:52;8.80;88.90
26821;DHT22;37186;51.394;5.454;2023-12-14T14:27:53;8.80;88.90
26821;DHT22;37186;51.394;5.454;2023-12-14T14:30:53;8.90;88.90
26821;DHT22;37186;51.394;5.454;2023-12-14T14:33:54;8.80;88.90
26821;DHT22;37186;51.394;5.454;2023-12-14T14:36:54;8.90;88.90
26821;DHT22;37186;51.394;5.454;2023-12-14T14:39:55;8.80;88.90
26821;DHT22;37186;51.394;5.454;2023-12-14T14:42:56;8.90;88.90
26821;DHT22;37186;51.394;5.454;2023-12-14T14:45:56;8.90;88.90
26821;DHT22;37186;51.394;5.454;2023-12-14T14:48:58;8.90;88.90
26821;DHT22;37186;51.394;5.454;2023-12-14T14:52:01;8.90;88.90
26821;DHT22;37186;51.394;5.454;2023-12-14T14:55:02;8.90;89.00
26821;DHT22;37186;51.394;5.454;2023-12-14T14:58:02;8.90;89.00
26821;DHT22;37186;51.394;5.454;2023-12-14T15:01:03;8.90;88.90
26821;DHT22;37186;51.394;5.454;2023-12-14T15:04:04;9.00;89.00
26821;DHT22;37186;51.394;5.454;2023-12-14T15:07:04;8.90;88.90
26821;DHT22;37186;51.394;5.454;2023-12-14T15:10:05;9.00;89.00
26821;DHT22;37186;51.394;5.454;2023-12-14T15:13:06;9.00;89.00
26821;DHT22;37186;51.394;5.454;2023-12-14T15:16:07;9.00;89.00
26821;DHT22;37186;51.394;5.454;2023-12-14T15:19:08;9.00;89.00
26821;DHT22;37186;51.394;5.454;2023-12-14T15:22:08;9.00;89.00
26821;DHT22;37186;51.394;5.454;2023-12-14T15:25:09;9.00;89.00
26821;DHT22;37186;51.394;5.454;2023-12-14T15:28:09;9.00;89.00
26821;DHT22;37186;51.394;5.454;2023-12-14T15:31:10;9.00;88.90
26821;DHT22;37186;51.394;5.454;2023-12-14T15:34:12;9.00;88.90
26821;DHT22;37186;51.394;5.454;2023-12-14T15:37:13;9.00;88.90
26821;DHT22;37186;51.394;5.454;2023-12-14T15:40:13;9.00;88.90
26821;DHT22;37186;51.394;5.454;2023-12-14T15:43:14;9.00;88.90
26821;DHT22;37186;51.394;5.454;2023-12-14T15:46:14;9.10;89.10
26821;DHT22;37186;51.394;5.454;2023-12-14T15:49:16;9.10;89.00
26821;DHT22;37186;51.394;5.454;2023-12-14T15:52:16;9.10;89.00
26821;DHT22;37186;51.394;5.454;2023-12-14T15:55:17;9.10;89.00
26821;DHT22;37186;51.394;5.454;2023-12-14T15:58:19;9.10;89.00
26821;DHT22;37186;51.394;5.454;2023-12-14T16:01:19;9.10;89.00
26821;DHT22;37186;51.394;5.454;2023-12-14T16:04:21;9.10;89.10
26821;DHT22;37186;51.394;5.454;2023-12-14T16:07:22;9.10;89.10
26821;DHT22;37186;51.394;5.454;2023-12-14T16:10:22;9.10;89.00
26821;DHT22;37186;51.394;5.454;2023-12-14T16:13:23;9.10;89.30
26821;DHT22;37186;51.394;5.454;2023-12-14T16:16:23;9.10;88.90
26821;DHT22;37186;51.394;5.454;2023-12-14T16:19:24;9.10;88.90
26821;DHT22;37186;51.394;5.454;2023-12-14T16:22:25;9.10;88.90
26821;DHT22;37186;51.394;5.454;2023-12-14T16:25:25;9.20;89.00
26821;DHT22;37186;51.394;5.454;2023-12-14T16:28:26;9.10;88.90
26821;DHT22;37186;51.394;5.454;2023-12-14T16:31:27;9.20;89.00
26821;DHT22;37186;51.394;5.454;2023-12-14T16:34:28;9.10;88.90
26821;DHT22;37186;51.394;5.454;2023-12-14T16:37:28;9.10;88.90
26821;DHT22;37186;51.394;5.454;2023-12-14T16:40:31;9.10;89.70
26821;DHT22;37186;51.394;5.454;2023-12-14T16:43:31;9.10;88.90
26821;DHT22;37186;51.394;5.454;2023-12-14T16:46:32;9.10;88.90
26821;DHT22;37186;51.394;5.454;2023-12-14T16:49:35;9.10;88.90
26821;DHT22;37186;51.394;5.454;2023-12-14T16:52:35;9.10;89.70
26821;DHT22;37186;51.394;5.454;2023-12-14T16:55:36;9.10;88.90
26821;DHT22;37186;51.394;5.454;2023-12-14T16:58:36;9.10;88.90
26821;DHT22;37186;51.394;5.454;2023-12-14T17:01:38;9.10;88.90
26821;DHT22;37186;51.394;5.454;2023-12-14T17:04:39;9.10;88.90
26821;DHT22;37186;51.394;5.454;2023-12-14T17:07:40;9.10;88.90
26821;DHT22;37186;51.394;5.454;2023-12-14T17:10:41;9.10;88.90
26821;DHT22;37186;51.394;5.454;2023-12-14T17:13:41;9.10;88.90
26821;DHT22;37186;51.394;5.454;2023-12-14T17:16:45;9.10;88.90
26821;DHT22;37186;51.394;5.454;2023-12-14T17:19:45;9.10;88.90
26821;DHT22;37186;51.394;5.454;2023-12-14T17:22:46;9.10;88.90
26821;DHT22;37186;51.394;5.454;2023-12-14T17:25:46;9.10;88.90
26821;DHT22;37186;51.394;5.454;2023-12-14T17:28:52;9.10;88.90
26821;DHT22;37186;51.394;5.454;2023-12-14T17:31:52;9.10;88.90
26821;DHT22;37186;51.394;5.454;2023-12-14T17:34:53;9.10;89.00
26821;DHT22;37186;51.394;5.454;2023-12-14T17:37:53;9.10;88.90
26821;DHT22;37186;51.394;5.454;2023-12-14T17:40:54;9.10;89.00
26821;DHT22;37186;51.394;5.454;2023-12-14T17:43:54;9.10;88.90
26821;DHT22;37186;51.394;5.454;2023-12-14T17:46:55;9.10;89.00
26821;DHT22;37186;51.394;5.454;2023-12-14T17:49:55;9.10;88.90
26821;DHT22;37186;51.394;5.454;2023-12-14T17:52:57;9.10;89.00
26821;DHT22;37186;51.394;5.454;2023-12-14T17:55:59;9.10;88.90
26821;DHT22;37186;51.394;5.454;2023-12-14T17:59:00;9.10;89.00
26821;DHT22;37186;51.394;5.454;2023-12-14T18:02:00;9.10;88.90
26821;DHT22;37186;51.394;5.454;2023-12-14T18:05:01;9.10;89.00
26821;DHT22;37186;51.394;5.454;2023-12-14T18:08:01;9.10;88.90
26821;DHT22;37186;51.394;5.454;2023-12-14T18:11:02;9.10;88.90
26821;DHT22;37186;51.394;5.454;2023-12-14T18:14:03;9.10;89.70
26821;DHT22;37186;51.394;5.454;2023-12-14T18:17:03;9.10;89.00
26821;DHT22;37186;51.394;5.454;2023-12-14T18:20:04;9.10;89.00
26821;DHT22;37186;51.394;5.454;2023-12-14T18:23:05;9.10;89.00
26821;DHT22;37186;51.394;5.454;2023-12-14T18:26:06;9.10;88.90
26821;DHT22;37186;51.394;5.454;2023-12-14T18:29:07;9.00;88.90
26821;DHT22;37186;51.394;5.454;2023-12-14T18:32:07;9.10;88.90
26821;DHT22;37186;51.394;5.454;2023-12-14T18:35:08;9.00;88.90
26821;DHT22;37186;51.394;5.454;2023-12-14T18:38:09;9.00;88.90
26821;DHT22;37186;51.394;5.454;2023-12-14T18:41:10;9.00;88.90
26821;DHT22;37186;51.394;5.454;2023-12-14T18:44:10;9.00;88.90
26821;DHT22;37186;51.394;5.454;2023-12-14T18:47:11;9.00;88.90
26821;DHT22;37186;51.394;5.454;2023-12-14T18:50:12;9.00;89.00
26821;DHT22;37186;51.394;5.454;2023-12-14T18:53:13;9.00;89.00
26821;DHT22;37186;51.394;5.454;2023-12-14T18:56:13;8.90;88.90
26821;DHT22;37186;51.394;5.454;2023-12-14T18:59:14;9.00;89.00
26821;DHT22;37186;51.394;5.454;2023-12-14T19:02:14;9.00;89.00
26821;DHT22;37186;51.394;5.454;2023-12-14T19:05:15;9.00;89.00
26821;DHT22;37186;51.394;5.454;2023-12-14T19:08:18;9.00;89.00
26821;DHT22;37186;51.394;5.454;2023-12-14T19:11:19;9.00;89.00
26821;DHT22;37186;51.394;5.454;2023-12-14T19:14:20;9.00;89.00
26821;DHT22;37186;51.394;5.454;2023-12-14T19:17:20;9.00;89.00
26821;DHT22;37186;51.394;5.454;2023-12-14T19:20:21;9.00;89.00
26821;DHT22;37186;51.394;5.454;2023-12-14T19:23:21;9.00;89.00